Terminal Aerodrome Forecast
Issued by NWS Cleveland, OH

Home | Current Version | Previous Version | Text Only | Print | Product List | Glossary On
Versions: 1 2 3 4 5 6 7 8 9 10 11 12 13 14 15 16 17 18 19
000
FTUS41 KCLE 191100
TAFYNG
TAF
KYNG 191135Z 1912/2012 09010KT P6SM SCT060 BKN150
     FM191400 11012G22KT P6SM BKN060 OVC150
     FM192100 12015G25KT 5SM -SHRA SCT025 OVC060
     FM192300 14015G28KT 3SM -SHRA SCT010 OVC025
     FM200400 16015G25KT 6SM -SHRA OVC010
     FM200800 19015G25KT P6SM VCSH OVC030=

USA.gov is the U.S. government's official web portal to all federal, state and local government web resources and services.